sensor_id;sensor_type;location;lat;lon;timestamp;pressure;altitude;pressure_sealevel;temperature;humidity
60087;BME280;45960;53.630;55.972;2023-07-02T00:00:06;98349.47;;;22.67;61.93
60087;BME280;45960;53.630;55.972;2023-07-02T00:01:12;98360.28;;;22.74;61.76
60087;BME280;45960;53.630;55.972;2023-07-02T00:02:15;98354.41;;;22.77;61.53
60087;BME280;45960;53.630;55.972;2023-07-02T00:03:20;98349.78;;;22.77;61.51
60087;BME280;45960;53.630;55.972;2023-07-02T00:04:22;98354.41;;;22.77;61.62
60087;BME280;45960;53.630;55.972;2023-07-02T00:05:23;98346.53;;;22.69;61.82
60087;BME280;45960;53.630;55.972;2023-07-02T00:06:24;98346.13;;;22.65;61.80
60087;BME280;45960;53.630;55.972;2023-07-02T00:07:26;98339.13;;;22.58;61.96
60087;BME280;45960;53.630;55.972;2023-07-02T00:08:27;98349.56;;;22.61;61.79
60087;BME280;45960;53.630;55.972;2023-07-02T00:09:28;98343.88;;;22.62;62.03
60087;BME280;45960;53.630;55.972;2023-07-02T00:10:29;98345.38;;;22.58;62.46
60087;BME280;45960;53.630;55.972;2023-07-02T00:11:30;98356.03;;;22.60;62.26
60087;BME280;45960;53.630;55.972;2023-07-02T00:12:31;98359.59;;;22.60;62.15
60087;BME280;45960;53.630;55.972;2023-07-02T00:13:32;98359.22;;;22.56;62.02
60087;BME280;45960;53.630;55.972;2023-07-02T00:14:33;98364.72;;;22.50;62.20
60087;BME280;45960;53.630;55.972;2023-07-02T00:15:35;98361.00;;;22.44;61.88
60087;BME280;45960;53.630;55.972;2023-07-02T00:16:38;98356.03;;;22.41;61.99
60087;BME280;45960;53.630;55.972;2023-07-02T00:17:40;98360.84;;;22.39;62.27
60087;BME280;45960;53.630;55.972;2023-07-02T00:18:41;98354.34;;;22.40;62.40
60087;BME280;45960;53.630;55.972;2023-07-02T00:19:42;98363.13;;;22.42;62.15
60087;BME280;45960;53.630;55.972;2023-07-02T00:20:43;98366.91;;;22.41;62.09
60087;BME280;45960;53.630;55.972;2023-07-02T00:21:44;98365.22;;;22.40;62.04
60087;BME280;45960;53.630;55.972;2023-07-02T00:22:46;98363.13;;;22.42;61.95
60087;BME280;45960;53.630;55.972;2023-07-02T00:23:47;98348.50;;;22.37;61.85
60087;BME280;45960;53.630;55.972;2023-07-02T00:24:48;98364.78;;;22.43;61.69
60087;BME280;45960;53.630;55.972;2023-07-02T00:25:51;98358.75;;;22.41;62.17
60087;BME280;45960;53.630;55.972;2023-07-02T00:26:52;98355.41;;;22.39;62.05
60087;BME280;45960;53.630;55.972;2023-07-02T00:27:53;98354.34;;;22.40;62.34
60087;BME280;45960;53.630;55.972;2023-07-02T00:28:55;98352.22;;;22.42;62.40
60087;BME280;45960;53.630;55.972;2023-07-02T00:29:56;98352.59;;;22.46;62.17
60087;BME280;45960;53.630;55.972;2023-07-02T00:30:57;98350.13;;;22.44;62.05
60087;BME280;45960;53.630;55.972;2023-07-02T00:31:58;98353.50;;;22.40;62.20
60087;BME280;45960;53.630;55.972;2023-07-02T00:32:59;98362.19;;;22.30;62.25
60087;BME280;45960;53.630;55.972;2023-07-02T00:34:01;98357.28;;;22.13;62.64
60087;BME280;45960;53.630;55.972;2023-07-02T00:35:02;98363.78;;;22.12;63.06
60087;BME280;45960;53.630;55.972;2023-07-02T00:36:05;98363.78;;;22.12;63.24
60087;BME280;45960;53.630;55.972;2023-07-02T00:37:06;98360.19;;;22.12;63.21
60087;BME280;45960;53.630;55.972;2023-07-02T00:38:07;98358.75;;;22.09;63.35
60087;BME280;45960;53.630;55.972;2023-07-02T00:39:10;98355.81;;;22.11;63.39
60087;BME280;45960;53.630;55.972;2023-07-02T00:40:15;98353.94;;;22.11;63.42
60087;BME280;45960;53.630;55.972;2023-07-02T00:41:16;98355.19;;;22.09;63.58
60087;BME280;45960;53.630;55.972;2023-07-02T00:42:17;98364.34;;;22.15;63.53
60087;BME280;45960;53.630;55.972;2023-07-02T00:43:18;98365.81;;;22.17;63.68
60087;BME280;45960;53.630;55.972;2023-07-02T00:44:19;98359.13;;;22.20;63.95
60087;BME280;45960;53.630;55.972;2023-07-02T00:45:22;98362.91;;;22.19;63.72
60087;BME280;45960;53.630;55.972;2023-07-02T00:46:24;98354.53;;;22.13;63.74
60087;BME280;45960;53.630;55.972;2023-07-02T00:47:27;98361.69;;;22.08;63.75
60087;BME280;45960;53.630;55.972;2023-07-02T00:48:29;98355.88;;;22.04;63.99
60087;BME280;45960;53.630;55.972;2023-07-02T00:49:30;98355.25;;;22.02;63.91
60087;BME280;45960;53.630;55.972;2023-07-02T00:50:32;98363.88;;;21.99;64.13
60087;BME280;45960;53.630;55.972;2023-07-02T00:51:33;98363.06;;;21.92;64.10
60087;BME280;45960;53.630;55.972;2023-07-02T00:52:36;98367.72;;;21.85;64.29
60087;BME280;45960;53.630;55.972;2023-07-02T00:53:37;98372.38;;;21.78;64.58
60087;BME280;45960;53.630;55.972;2023-07-02T00:54:38;98382.84;;;21.74;64.82
60087;BME280;45960;53.630;55.972;2023-07-02T00:55:41;98378.69;;;21.72;64.77
60087;BME280;45960;53.630;55.972;2023-07-02T00:56:42;98384.13;;;21.72;65.11
60087;BME280;45960;53.630;55.972;2023-07-02T00:57:43;98380.34;;;21.73;65.07
60087;BME280;45960;53.630;55.972;2023-07-02T00:58:48;98383.94;;;21.66;65.35
60087;BME280;45960;53.630;55.972;2023-07-02T00:59:51;98377.44;;;21.67;65.50
60087;BME280;45960;53.630;55.972;2023-07-02T01:00:53;98382.28;;;21.65;65.50
60087;BME280;45960;53.630;55.972;2023-07-02T01:01:57;98376.66;;;21.60;65.66
60087;BME280;45960;53.630;55.972;2023-07-02T01:02:58;98372.50;;;21.58;65.75
60087;BME280;45960;53.630;55.972;2023-07-02T01:04:01;98378.38;;;21.55;65.91
60087;BME280;45960;53.630;55.972;2023-07-02T01:05:03;98376.72;;;21.47;66.22
60087;BME280;45960;53.630;55.972;2023-07-02T01:06:05;98373.00;;;21.35;66.47
60087;BME280;45960;53.630;55.972;2023-07-02T01:07:06;98371.78;;;21.24;66.95
60087;BME280;45960;53.630;55.972;2023-07-02T01:08:11;98373.91;;;21.15;66.91
60087;BME280;45960;53.630;55.972;2023-07-02T01:09:13;98376.44;;;21.10;67.06
60087;BME280;45960;53.630;55.972;2023-07-02T01:10:14;98377.69;;;21.08;67.04
60087;BME280;45960;53.630;55.972;2023-07-02T01:11:15;98382.72;;;21.04;67.04
60087;BME280;45960;53.630;55.972;2023-07-02T01:12:17;98379.19;;;20.97;67.24
60087;BME280;45960;53.630;55.972;2023-07-02T01:13:21;98386.09;;;20.93;67.31
60087;BME280;45960;53.630;55.972;2023-07-02T01:14:33;98386.53;;;20.90;67.43
60087;BME280;45960;53.630;55.972;2023-07-02T01:15:35;98382.75;;;20.91;67.47
60087;BME280;45960;53.630;55.972;2023-07-02T01:16:37;98382.13;;;20.89;67.42
60087;BME280;45960;53.630;55.972;2023-07-02T01:17:40;98381.91;;;20.84;67.14
60087;BME280;45960;53.630;55.972;2023-07-02T01:18:43;98382.56;;;20.79;67.00
60087;BME280;45960;53.630;55.972;2023-07-02T01:19:55;98380.25;;;20.83;67.03
60087;BME280;45960;53.630;55.972;2023-07-02T01:20:59;98387.34;;;20.90;66.94
60087;BME280;45960;53.630;55.972;2023-07-02T01:22:02;98394.88;;;20.88;66.51
60087;BME280;45960;53.630;55.972;2023-07-02T01:23:04;98386.13;;;20.79;66.02
60087;BME280;45960;53.630;55.972;2023-07-02T01:24:06;98389.88;;;20.72;66.21
60087;BME280;45960;53.630;55.972;2023-07-02T01:25:08;98391.78;;;20.71;66.17
60087;BME280;45960;53.630;55.972;2023-07-02T01:26:11;98391.97;;;20.76;66.02
60087;BME280;45960;53.630;55.972;2023-07-02T01:27:13;98386.75;;;20.82;65.97
60087;BME280;45960;53.630;55.972;2023-07-02T01:28:15;98380.69;;;20.79;65.60
60087;BME280;45960;53.630;55.972;2023-07-02T01:29:18;98397.81;;;20.73;65.49
60087;BME280;45960;53.630;55.972;2023-07-02T01:30:19;98391.78;;;20.71;65.53
60087;BME280;45960;53.630;55.972;2023-07-02T01:31:21;98393.22;;;20.74;65.75
60087;BME280;45960;53.630;55.972;2023-07-02T01:32:25;98390.09;;;20.77;65.27
60087;BME280;45960;53.630;55.972;2023-07-02T01:33:26;98397.81;;;20.73;65.49
60087;BME280;45960;53.630;55.972;2023-07-02T01:34:28;98398.69;;;20.67;65.36
60087;BME280;45960;53.630;55.972;2023-07-02T01:35:29;98397.84;;;20.60;65.86
60087;BME280;45960;53.630;55.972;2023-07-02T01:36:30;98403.28;;;20.60;66.06
60087;BME280;45960;53.630;55.972;2023-07-02T01:37:31;98403.50;;;20.59;65.69
60087;BME280;45960;53.630;55.972;2023-07-02T01:38:38;98394.06;;;20.48;66.12
60087;BME280;45960;53.630;55.972;2023-07-02T01:39:39;98397.19;;;20.51;66.15
60087;BME280;45960;53.630;55.972;2023-07-02T01:40:40;98394.91;;;20.55;66.11
60087;BME280;45960;53.630;55.972;2023-07-02T01:42:14;98398.91;;;20.59;65.83
60087;BME280;45960;53.630;55.972;2023-07-02T01:43:19;98403.28;;;20.60;65.83
60087;BME280;45960;53.630;55.972;2023-07-02T01:44:21;98406.63;;;20.62;65.71
60087;BME280;45960;53.630;55.972;2023-07-02T01:45:22;98397.38;;;20.50;65.78
60087;BME280;45960;53.630;55.972;2023-07-02T01:46:23;98402.22;;;20.48;65.76
60087;BME280;45960;53.630;55.972;2023-07-02T01:47:25;98399.91;;;20.45;65.65
60087;BME280;45960;53.630;55.972;2023-07-02T01:48:26;98402.84;;;20.37;65.97
60087;BME280;45960;53.630;55.972;2023-07-02T01:49:27;98401.16;;;20.35;66.17
60087;BME280;45960;53.630;55.972;2023-07-02T01:50:28;98388.66;;;20.28;66.23
60087;BME280;45960;53.630;55.972;2023-07-02T01:51:29;98394.91;;;20.28;66.42
60087;BME280;45960;53.630;55.972;2023-07-02T01:52:30;98394.69;;;20.23;66.60
60087;BME280;45960;53.630;55.972;2023-07-02T01:53:35;98387.81;;;20.21;66.80
60087;BME280;45960;53.630;55.972;2023-07-02T01:54:36;98390.72;;;20.19;66.86
60087;BME280;45960;53.630;55.972;2023-07-02T01:55:38;98387.81;;;20.14;67.27
60087;BME280;45960;53.630;55.972;2023-07-02T01:56:38;98387.59;;;20.09;67.26
60087;BME280;45960;53.630;55.972;2023-07-02T01:57:40;98382.78;;;20.04;67.48
60087;BME280;45960;53.630;55.972;2023-07-02T01:58:43;98381.34;;;20.15;67.38
60087;BME280;45960;53.630;55.972;2023-07-02T01:59:44;98384.06;;;20.15;67.52
60087;BME280;45960;53.630;55.972;2023-07-02T02:00:45;98390.94;;;20.04;68.01
60087;BME280;45960;53.630;55.972;2023-07-02T02:01:47;98390.72;;;19.93;68.58
60087;BME280;45960;53.630;55.972;2023-07-02T02:02:48;98386.94;;;19.80;69.04
60087;BME280;45960;53.630;55.972;2023-07-02T02:03:49;98386.09;;;19.73;69.65
60087;BME280;45960;53.630;55.972;2023-07-02T02:04:50;98386.91;;;19.67;69.83
60087;BME280;45960;53.630;55.972;2023-07-02T02:05:52;98386.66;;;19.62;70.09
60087;BME280;45960;53.630;55.972;2023-07-02T02:06:53;98391.44;;;19.53;70.46
60087;BME280;45960;53.630;55.972;2023-07-02T02:07:56;98386.00;;;19.53;70.50
60087;BME280;45960;53.630;55.972;2023-07-02T02:08:57;98387.25;;;19.51;70.81
60087;BME280;45960;53.630;55.972;2023-07-02T02:09:58;98387.66;;;19.48;70.89
60087;BME280;45960;53.630;55.972;2023-07-02T02:10:59;98383.72;;;19.50;71.05
60087;BME280;45960;53.630;55.972;2023-07-02T02:12:01;98369.75;;;19.47;70.84
60087;BME280;45960;53.630;55.972;2023-07-02T02:13:02;98380.59;;;19.47;71.02
60087;BME280;45960;53.630;55.972;2023-07-02T02:14:03;98384.31;;;19.45;71.15
60087;BME280;45960;53.630;55.972;2023-07-02T02:15:05;98393.72;;;19.50;71.04
60087;BME280;45960;53.630;55.972;2023-07-02T02:16:07;98383.06;;;19.41;70.96
60087;BME280;45960;53.630;55.972;2023-07-02T02:17:09;98394.72;;;19.42;71.11
60087;BME280;45960;53.630;55.972;2023-07-02T02:18:10;98396.41;;;19.50;71.08
60087;BME280;45960;53.630;55.972;2023-07-02T02:19:11;98390.59;;;19.53;70.89
60087;BME280;45960;53.630;55.972;2023-07-02T02:20:14;98385.13;;;19.46;71.04
60087;BME280;45960;53.630;55.972;2023-07-02T02:21:15;98384.72;;;19.42;71.24
60087;BME280;45960;53.630;55.972;2023-07-02T02:22:16;98390.53;;;19.39;71.12
60087;BME280;45960;53.630;55.972;2023-07-02T02:23:17;98401.31;;;19.26;71.58
60087;BME280;45960;53.630;55.972;2023-07-02T02:24:18;98396.25;;;19.10;72.59
60087;BME280;45960;53.630;55.972;2023-07-02T02:25:19;98405.97;;;18.97;73.03
60087;BME280;45960;53.630;55.972;2023-07-02T02:26:21;98400.06;;;18.87;73.65
60087;BME280;45960;53.630;55.972;2023-07-02T02:27:22;98403.56;;;18.81;74.22
60087;BME280;45960;53.630;55.972;2023-07-02T02:28:23;98397.69;;;18.71;74.85
60087;BME280;45960;53.630;55.972;2023-07-02T02:29:25;98407.63;;;18.70;75.05
60087;BME280;45960;53.630;55.972;2023-07-02T02:30:26;98409.00;;;18.60;75.57
60087;BME280;45960;53.630;55.972;2023-07-02T02:31:27;98410.34;;;18.42;76.33
60087;BME280;45960;53.630;55.972;2023-07-02T02:32:29;98413.66;;;18.38;76.76
60087;BME280;45960;53.630;55.972;2023-07-02T02:33:32;98414.50;;;18.38;77.03
60087;BME280;45960;53.630;55.972;2023-07-02T02:34:33;98419.09;;;18.44;77.34
60087;BME280;45960;53.630;55.972;2023-07-02T02:35:34;98416.16;;;18.39;77.44
60087;BME280;45960;53.630;55.972;2023-07-02T02:36:36;98410.63;;;18.26;77.75
60087;BME280;45960;53.630;55.972;2023-07-02T02:37:38;98406.00;;;18.20;78.15
60087;BME280;45960;53.630;55.972;2023-07-02T02:38:41;98407.00;;;18.12;78.63
60087;BME280;45960;53.630;55.972;2023-07-02T02:39:42;98410.91;;;18.09;78.89
60087;BME280;45960;53.630;55.972;2023-07-02T02:40:44;98408.59;;;18.06;79.16
60087;BME280;45960;53.630;55.972;2023-07-02T02:41:48;98403.00;;;18.08;79.47
60087;BME280;45960;53.630;55.972;2023-07-02T02:42:53;98400.72;;;18.11;79.61
60087;BME280;45960;53.630;55.972;2023-07-02T02:43:54;98402.47;;;18.19;79.62
60087;BME280;45960;53.630;55.972;2023-07-02T02:44:57;98403.16;;;18.28;79.54
60087;BME280;45960;53.630;55.972;2023-07-02T02:45:58;98402.38;;;18.34;79.40
60087;BME280;45960;53.630;55.972;2023-07-02T02:46:59;98407.03;;;18.40;79.36
60087;BME280;45960;53.630;55.972;2023-07-02T02:48:00;98406.63;;;18.43;79.25
60087;BME280;45960;53.630;55.972;2023-07-02T02:49:01;98407.03;;;18.40;79.32
60087;BME280;45960;53.630;55.972;2023-07-02T02:50:02;98393.69;;;18.39;79.40
60087;BME280;45960;53.630;55.972;2023-07-02T02:51:06;98405.84;;;18.49;79.55
60087;BME280;45960;53.630;55.972;2023-07-02T02:52:07;98409.81;;;18.53;79.50
60087;BME280;45960;53.630;55.972;2023-07-02T02:53:09;98402.88;;;18.44;79.34
60087;BME280;45960;53.630;55.972;2023-07-02T02:54:10;98408.47;;;18.43;79.93
60087;BME280;45960;53.630;55.972;2023-07-02T02:55:12;98412.91;;;18.50;79.89
60087;BME280;45960;53.630;55.972;2023-07-02T02:56:13;98400.53;;;18.63;79.82
60087;BME280;45960;53.630;55.972;2023-07-02T02:57:14;98415.19;;;18.75;79.70
60087;BME280;45960;53.630;55.972;2023-07-02T02:58:15;98416.09;;;18.82;79.45
60087;BME280;45960;53.630;55.972;2023-07-02T02:59:17;98413.84;;;18.92;79.21
60087;BME280;45960;53.630;55.972;2023-07-02T03:00:18;98413.03;;;18.98;78.94
60087;BME280;45960;53.630;55.972;2023-07-02T03:01:19;98418.28;;;19.07;78.68
60087;BME280;45960;53.630;55.972;2023-07-02T03:02:20;98427.94;;;19.16;78.75
60087;BME280;45960;53.630;55.972;2023-07-02T03:03:22;98428.38;;;19.26;78.49
60087;BME280;45960;53.630;55.972;2023-07-02T03:04:24;98427.56;;;19.32;78.53
60087;BME280;45960;53.630;55.972;2023-07-02T03:05:26;98424.22;;;19.23;77.93
60087;BME280;45960;53.630;55.972;2023-07-02T03:06:27;98417.88;;;19.10;78.31
60087;BME280;45960;53.630;55.972;2023-07-02T03:07:28;98428.31;;;19.13;78.91
60087;BME280;45960;53.630;55.972;2023-07-02T03:08:29;98430.47;;;19.24;79.08
60087;BME280;45960;53.630;55.972;2023-07-02T03:09:31;98424.50;;;19.35;79.14
60087;BME280;45960;53.630;55.972;2023-07-02T03:10:32;98426.78;;;19.38;78.89
60087;BME280;45960;53.630;55.972;2023-07-02T03:11:33;98425.16;;;19.44;78.97
60087;BME280;45960;53.630;55.972;2023-07-02T03:12:35;98412.63;;;19.36;78.73
60087;BME280;45960;53.630;55.972;2023-07-02T03:13:36;98426.63;;;19.47;78.81
60087;BME280;45960;53.630;55.972;2023-07-02T03:14:37;98432.25;;;19.52;78.79
60087;BME280;45960;53.630;55.972;2023-07-02T03:15:38;98424.16;;;19.65;78.66
60087;BME280;45960;53.630;55.972;2023-07-02T03:16:41;98415.66;;;19.68;78.43
60087;BME280;45960;53.630;55.972;2023-07-02T03:17:42;98429.03;;;19.76;78.22
60087;BME280;45960;53.630;55.972;2023-07-02T03:18:43;98421.97;;;19.82;78.25
60087;BME280;45960;53.630;55.972;2023-07-02T03:19:44;98423.22;;;19.93;78.24
60087;BME280;45960;53.630;55.972;2023-07-02T03:20:45;98423.69;;;20.03;77.88
60087;BME280;45960;53.630;55.972;2023-07-02T03:21:46;98421.56;;;20.05;77.38
60087;BME280;45960;53.630;55.972;2023-07-02T03:22:47;98420.75;;;20.04;77.13
60087;BME280;45960;53.630;55.972;2023-07-02T03:23:48;98417.41;;;20.02;77.00
60087;BME280;45960;53.630;55.972;2023-07-02T03:24:49;98420.34;;;20.01;76.63
60087;BME280;45960;53.630;55.972;2023-07-02T03:25:50;98416.16;;;19.92;76.74
60087;BME280;45960;53.630;55.972;2023-07-02T03:26:51;98425.72;;;19.87;76.99
60087;BME280;45960;53.630;55.972;2023-07-02T03:27:52;98416.75;;;19.87;77.14
60087;BME280;45960;53.630;55.972;2023-07-02T03:28:53;98420.72;;;19.91;77.43
60087;BME280;45960;53.630;55.972;2023-07-02T03:29:54;98419.91;;;19.97;77.12
60087;BME280;45960;53.630;55.972;2023-07-02T03:30:55;98417.41;;;20.02;77.07
60087;BME280;45960;53.630;55.972;2023-07-02T03:31:56;98424.91;;;20.07;77.01
60087;BME280;45960;53.630;55.972;2023-07-02T03:32:58;98420.56;;;20.06;76.98
60087;BME280;45960;53.630;55.972;2023-07-02T03:34:03;98424.09;;;20.00;76.69
60087;BME280;45960;53.630;55.972;2023-07-02T03:35:04;98422.41;;;19.99;77.12
60087;BME280;45960;53.630;55.972;2023-07-02T03:36:06;98428.25;;;19.96;76.91
60087;BME280;45960;53.630;55.972;2023-07-02T03:37:08;98426.53;;;19.88;77.04
60087;BME280;45960;53.630;55.972;2023-07-02T03:38:09;98421.56;;;19.92;76.91
60087;BME280;45960;53.630;55.972;2023-07-02T03:39:11;98424.28;;;19.92;76.96
60087;BME280;45960;53.630;55.972;2023-07-02T03:40:12;98427.81;;;19.99;77.00
60087;BME280;45960;53.630;55.972;2023-07-02T03:41:13;98429.94;;;20.10;77.13
60087;BME280;45960;53.630;55.972;2023-07-02T03:42:16;98428.28;;;20.09;76.73
60087;BME280;45960;53.630;55.972;2023-07-02T03:43:17;98423.88;;;20.08;76.92
60087;BME280;45960;53.630;55.972;2023-07-02T03:44:18;98417.44;;;20.22;77.02
60087;BME280;45960;53.630;55.972;2023-07-02T03:45:20;98422.03;;;20.35;76.91
60087;BME280;45960;53.630;55.972;2023-07-02T03:46:21;98420.78;;;20.38;76.67
60087;BME280;45960;53.630;55.972;2023-07-02T03:47:22;98410.97;;;20.23;76.51
60087;BME280;45960;53.630;55.972;2023-07-02T03:48:23;98414.72;;;20.29;77.04
60087;BME280;45960;53.630;55.972;2023-07-02T03:49:24;98419.53;;;20.33;76.77
60087;BME280;45960;53.630;55.972;2023-07-02T03:50:25;98414.91;;;20.27;76.47
60087;BME280;45960;53.630;55.972;2023-07-02T03:51:26;98418.06;;;20.31;76.58
60087;BME280;45960;53.630;55.972;2023-07-02T03:52:27;98422.03;;;20.28;76.33
60087;BME280;45960;53.630;55.972;2023-07-02T03:53:28;98427.03;;;20.31;76.64
60087;BME280;45960;53.630;55.972;2023-07-02T03:54:29;98420.34;;;20.41;76.45
60087;BME280;45960;53.630;55.972;2023-07-02T03:55:31;98429.16;;;20.56;76.24
60087;BME280;45960;53.630;55.972;2023-07-02T03:56:32;98429.97;;;20.63;75.96
60087;BME280;45960;53.630;55.972;2023-07-02T03:57:33;98426.44;;;20.63;75.85
60087;BME280;45960;53.630;55.972;2023-07-02T03:58:34;98433.34;;;20.59;75.68
60087;BME280;45960;53.630;55.972;2023-07-02T03:59:35;98429.13;;;20.49;75.82
60087;BME280;45960;53.630;55.972;2023-07-02T04:00:37;98432.91;;;20.55;76.09
60087;BME280;45960;53.630;55.972;2023-07-02T04:01:39;98423.31;;;20.59;75.94
60087;BME280;45960;53.630;55.972;2023-07-02T04:02:40;98420.38;;;20.67;75.80
60087;BME280;45960;53.630;55.972;2023-07-02T04:03:52;98429.97;;;20.90;75.38
60087;BME280;45960;53.630;55.972;2023-07-02T04:04:54;98433.88;;;21.07;74.76
60087;BME280;45960;53.630;55.972;2023-07-02T04:05:54;98430.09;;;21.08;74.42
60087;BME280;45960;53.630;55.972;2023-07-02T04:06:56;98433.25;;;21.12;74.70
60087;BME280;45960;53.630;55.972;2023-07-02T04:07:57;98430.31;;;21.13;74.58
60087;BME280;45960;53.630;55.972;2023-07-02T04:08:58;98429.44;;;21.19;74.28
60087;BME280;45960;53.630;55.972;2023-07-02T04:09:59;98431.72;;;21.22;74.33
60087;BME280;45960;53.630;55.972;2023-07-02T04:11:00;98443.63;;;21.35;74.46
60087;BME280;45960;53.630;55.972;2023-07-02T04:12:01;98422.56;;;21.23;74.10
60087;BME280;45960;53.630;55.972;2023-07-02T04:13:02;98439.44;;;21.26;73.97
60087;BME280;45960;53.630;55.972;2023-07-02T04:14:03;98437.81;;;21.18;73.62
60087;BME280;45960;53.630;55.972;2023-07-02T04:15:05;98445.81;;;21.06;73.82
60087;BME280;45960;53.630;55.972;2023-07-02T04:16:07;98444.97;;;20.99;73.90
60087;BME280;45960;53.630;55.972;2023-07-02T04:17:08;98444.50;;;21.09;73.38
60087;BME280;45960;53.630;55.972;2023-07-02T04:18:10;98455.34;;;21.29;73.16
60087;BME280;45960;53.630;55.972;2023-07-02T04:19:11;98449.69;;;21.43;72.79
60087;BME280;45960;53.630;55.972;2023-07-02T04:20:12;98455.69;;;21.52;72.78
60087;BME280;45960;53.630;55.972;2023-07-02T04:21:15;98451.72;;;21.55;72.29
60087;BME280;45960;53.630;55.972;2023-07-02T04:22:22;98452.59;;;21.42;71.65
60087;BME280;45960;53.630;55.972;2023-07-02T04:23:23;98453.47;;;21.22;71.88
60087;BME280;45960;53.630;55.972;2023-07-02T04:24:24;98450.75;;;21.22;72.18
60087;BME280;45960;53.630;55.972;2023-07-02T04:25:26;98459.91;;;21.35;71.86
60087;BME280;45960;53.630;55.972;2023-07-02T04:26:27;98457.00;;;21.30;71.57
60087;BME280;45960;53.630;55.972;2023-07-02T04:27:30;98457.03;;;21.16;71.44
60087;BME280;45960;53.630;55.972;2023-07-02T04:28:31;98457.47;;;21.13;71.41
60087;BME280;45960;53.630;55.972;2023-07-02T04:29:32;98459.75;;;21.16;71.40
60087;BME280;45960;53.630;55.972;2023-07-02T04:30:33;98457.88;;;21.23;71.42
60087;BME280;45960;53.630;55.972;2023-07-02T04:31:35;98465.16;;;21.43;71.39
60087;BME280;45960;53.630;55.972;2023-07-02T04:32:37;98457.16;;;21.55;70.83
60087;BME280;45960;53.630;55.972;2023-07-02T04:33:40;98459.41;;;21.64;70.35
60087;BME280;45960;53.630;55.972;2023-07-02T04:34:41;98462.13;;;21.64;69.92
60087;BME280;45960;53.630;55.972;2023-07-02T04:35:42;98459.47;;;21.51;69.41
60087;BME280;45960;53.630;55.972;2023-07-02T04:36:43;98451.13;;;21.46;69.87
60087;BME280;45960;53.630;55.972;2023-07-02T04:37:45;98458.03;;;21.42;69.56
60087;BME280;45960;53.630;55.972;2023-07-02T04:38:46;98472.88;;;21.46;69.94
60087;BME280;45960;53.630;55.972;2023-07-02T04:39:47;98470.69;;;21.68;69.95
60087;BME280;45960;53.630;55.972;2023-07-02T04:40:48;98469.72;;;21.94;69.08
60087;BME280;45960;53.630;55.972;2023-07-02T04:41:52;98472.09;;;22.22;68.64
60087;BME280;45960;53.630;55.972;2023-07-02T04:42:53;98470.16;;;22.54;68.02
60087;BME280;45960;53.630;55.972;2023-07-02T04:44:00;98462.97;;;22.67;65.94
60087;BME280;45960;53.630;55.972;2023-07-02T04:45:04;98465.25;;;22.70;65.93
60087;BME280;45960;53.630;55.972;2023-07-02T04:46:05;98459.00;;;22.63;64.97
60087;BME280;45960;53.630;55.972;2023-07-02T04:47:08;98477.50;;;22.54;65.08
60087;BME280;45960;53.630;55.972;2023-07-02T04:48:09;98467.13;;;22.44;64.98
60087;BME280;45960;53.630;55.972;2023-07-02T04:49:10;98470.59;;;22.58;65.67
60087;BME280;45960;53.630;55.972;2023-07-02T04:50:11;98470.75;;;22.88;65.72
60087;BME280;45960;53.630;55.972;2023-07-02T04:51:12;98468.41;;;23.17;64.93
60087;BME280;45960;53.630;55.972;2023-07-02T04:52:13;98475.97;;;23.52;64.69
60087;BME280;45960;53.630;55.972;2023-07-02T04:53:14;98471.75;;;23.56;62.44
60087;BME280;45960;53.630;55.972;2023-07-02T04:54:16;98481.25;;;23.65;62.79
60087;BME280;45960;53.630;55.972;2023-07-02T04:55:17;98477.00;;;23.69;62.85
60087;BME280;45960;53.630;55.972;2023-07-02T04:56:18;98466.53;;;23.73;62.46
60087;BME280;45960;53.630;55.972;2023-07-02T04:57:19;98483.38;;;23.63;60.78
60087;BME280;45960;53.630;55.972;2023-07-02T04:58:20;98485.06;;;23.64;61.67
60087;BME280;45960;53.630;55.972;2023-07-02T04:59:21;98479.59;;;23.64;61.83
60087;BME280;45960;53.630;55.972;2023-07-02T05:00:22;98485.16;;;23.76;62.39
60087;BME280;45960;53.630;55.972;2023-07-02T05:01:24;98488.25;;;23.79;61.91
60087;BME280;45960;53.630;55.972;2023-07-02T05:02:25;98481.13;;;23.78;61.19
60087;BME280;45960;53.630;55.972;2023-07-02T05:03:26;98494.16;;;23.76;60.50
60087;BME280;45960;53.630;55.972;2023-07-02T05:04:27;98487.91;;;23.69;60.19
60087;BME280;45960;53.630;55.972;2023-07-02T05:05:28;98496.78;;;23.64;59.82
60087;BME280;45960;53.630;55.972;2023-07-02T05:06:30;98498.09;;;23.62;59.27
60087;BME280;45960;53.630;55.972;2023-07-02T05:07:31;98500.19;;;23.60;59.38
60087;BME280;45960;53.630;55.972;2023-07-02T05:08:32;98508.22;;;23.55;58.92
60087;BME280;45960;53.630;55.972;2023-07-02T05:09:33;98502.06;;;23.41;59.15
60087;BME280;45960;53.630;55.972;2023-07-02T05:10:59;98505.88;;;23.40;58.72
60087;BME280;45960;53.630;55.972;2023-07-02T05:12:00;98508.38;;;23.41;59.13
60087;BME280;45960;53.630;55.972;2023-07-02T05:13:01;98503.69;;;23.49;59.08
60087;BME280;45960;53.630;55.972;2023-07-02T05:14:03;98515.81;;;23.53;58.73
60087;BME280;45960;53.630;55.972;2023-07-02T05:15:05;98512.63;;;23.56;58.63
60087;BME280;45960;53.630;55.972;2023-07-02T05:16:06;98505.19;;;23.63;57.97
60087;BME280;45960;53.630;55.972;2023-07-02T05:17:08;98507.25;;;23.67;58.10
60087;BME280;45960;53.630;55.972;2023-07-02T05:18:09;98503.41;;;23.75;58.03
60087;BME280;45960;53.630;55.972;2023-07-02T05:19:10;98510.88;;;23.80;57.27
60087;BME280;45960;53.630;55.972;2023-07-02T05:20:11;98508.69;;;23.88;56.99
60087;BME280;45960;53.630;55.972;2023-07-02T05:21:17;98505.41;;;23.98;56.83
60087;BME280;45960;53.630;55.972;2023-07-02T05:22:18;98507.59;;;24.08;56.36
60087;BME280;45960;53.630;55.972;2023-07-02T05:23:20;98507.41;;;24.21;56.81